Flight Track Log - Related Links

Times and Time Zones

All times are in EDT time to prevent confusion due to time zone crossing. See the F-GSPR flight status page for this flight to view local times or setup timezone preferences in your user account.

Time Position Orientation Groundspeed Altitude Reporting Facility
EDT Latitude Longitude Course Direction KTS MPH feet Rate Location/Type
Thu 09:54:02 PM 38.9667 -77.5500 117° Southeast 194 223 2,500  Level Potomac TRACON
Thu 09:55:02 PM 39.0333 -77.5833 339° North 260 299 3,500 1,700 Climbing Potomac TRACON
Thu 09:56:02 PM 39.1000 -77.6167 339° North 281 323 5,900 2,331 Climbing Potomac TRACON
Thu 09:57:03 PM 39.1500 -77.5667 38° Northeast 281 323 8,200 1,537 Climbing Potomac TRACON
Thu 09:58:03 PM 39.1833 -77.4833 63° Northeast 280 322 9,000 421 Climbing Potomac TRACON
Thu 09:58:57 PM 39.2167 -77.4000 63° Northeast 276 318 9,000 355 Level Potomac TRACON
Thu 09:59:00 PM 39.2532 -76.7662 117° Southeast  Level FlightAware Approximate
Thu 10:00:35 PM 39.2583 -77.2614 69° East 286 329 9,900  Level Washington Center
Thu 10:01:35 PM 39.2908 -77.1683 66° East 281 323 10,700 942 Climbing Washington Center
Thu 10:02:36 PM 39.3275 -77.0592 66° East 300 345 11,800 1,877 Climbing Washington Center
Thu 10:04:34 PM 39.2658 -76.8033 107° East 353 406 16,300 2,112 Climbing Washington Center
Thu 10:05:35 PM 39.2233 -76.6658 112° Southeast 380 437 18,100 1,700 Climbing Washington Center
Thu 10:06:34 PM 39.1808 -76.5261 111° Southeast 404 465 19,700 1,800 Climbing Washington Center
Thu 10:07:35 PM 39.1358 -76.3783 111° Southeast 425 489 21,700 1,900 Climbing Washington Center
Thu 10:08:34 PM 39.0889 -76.2308 112° Southeast 437 503 23,500 1,600 Climbing Washington Center
Thu 10:09:35 PM 39.0478 -76.0728 108° East 443 510 24,900 1,328 Climbing Washington Center
Thu 10:10:36 PM 39.0483 -75.9069 90° East 454 522 26,200 1,350 Climbing Washington Center
Thu 10:11:35 PM 39.0569 -75.7333 86° East 464 534 27,600 1,400 Climbing Washington Center
Thu 10:12:36 PM 39.0656 -75.5569 86° East 474 545 29,000 1,361 Climbing Washington Center
Thu 10:13:34 PM 39.0736 -75.3778 87° East 488 562 30,300 1,000 Climbing Washington Center
Thu 10:14:36 PM 39.0794 -75.1986 88° East 498 573 31,000 1,150 Climbing Washington Center
Thu 10:15:34 PM 39.0869 -75.0219 87° East 492 566 32,600 1,563 Climbing Washington Center
Thu 10:16:35 PM 39.0903 -74.8428 89° East 492 566 34,100 1,377 Climbing Washington Center
Thu 10:17:36 PM 39.0472 -74.6775 108° East 487 560 35,400 1,100 Climbing Washington Center
Thu 10:18:35 PM 39.0436 -74.5039 91° East 482 555 36,300 473 Climbing Washington Center
Thu 10:20:59 PM 39.0725 -74.0950 85° East 481 554 37,000 207 Climbing New York Center
Thu 10:21:58 PM 39.0811 -73.9267 86° East 476 548 37,000  Level New York Center
Thu 10:22:59 PM 39.0919 -73.7561 85° East 476 548 37,000 -50 Level New York Center
Thu 10:23:59 PM 39.1025 -73.5853 85° East 476 548 36,900 -51 Descending New York Center
Thu 10:24:57 PM 39.1125 -73.4197 85° East 476 548 36,900 50 Level New York Center
Thu 10:25:58 PM 39.1253 -73.2247 85° East 482 555 37,000 49 Climbing New York Center
Thu 10:26:59 PM 39.1369 -73.0564 85° East 482 555 37,000  Level New York Center
Thu 10:27:59 PM 39.1444 -72.8800 87° East 476 548 37,000 -50 Level New York Center
Thu 10:28:58 PM 39.1517 -72.7117 87° East 476 548 36,900 -51 Descending New York Center
Thu 10:29:57 PM 39.1628 -72.5406 85° East 476 548 36,900 50 Level New York Center
Thu 10:30:59 PM 39.1714 -72.3719 86° East 481 554 37,000  Climbing New York Center
Thu 10:31:57 PM 39.1778 -72.1981 87° East 476 548 36,900  Descending New York Center
Thu 10:32:59 PM 39.1861 -72.0269 86° East 476 548 37,000  Climbing New York Center
Thu 10:34:00 PM 39.1961 -71.8556 86° East 476 548 36,900 -51 Descending New York Center
Thu 10:34:57 PM 39.2039 -71.6814 87° East 481 554 36,900 51 Level New York Center
Thu 10:35:57 PM 39.2428 -71.5239 72° East 466 536 37,000  Climbing New York Center
Thu 10:37:00 PM 39.3039 -71.3797 61° Northeast 454 522 36,900 -50 Descending New York Center
Thu 10:37:57 PM 39.3653 -71.2461 59° Northeast 442 509 36,900  Level New York Center
Thu 10:38:57 PM 39.4261 -71.1039 61° Northeast 442 509 36,900 50 Level New York Center
Thu 10:39:58 PM 39.4869 -70.9644 60° Northeast 442 509 37,000 49 Climbing New York Center
Thu 10:40:59 PM 39.5517 -70.8219 59° Northeast 437 503 37,000 -50 Level New York Center
Thu 10:41:59 PM 39.6103 -70.6819 61° Northeast 443 510 36,900 -50 Descending New York Center
Thu 10:42:59 PM 39.6706 -70.5444 60° Northeast 436 502 36,900 50 Level New York Center
Thu 10:43:59 PM 39.7328 -70.4011 61° Northeast 441 507 37,000 51 Climbing New York Center
Thu 10:44:57 PM 39.7950 -70.2686 59° Northeast 441 507 37,000  Level New York Center
Thu 10:45:58 PM 39.8547 -70.1222 62° Northeast 441 507 37,000 -49 Level New York Center
Thu 10:46:59 PM 39.9164 -69.9808 60° Northeast 441 507 36,900 -50 Descending New York Center
Thu 10:47:58 PM 39.9758 -69.8447 60° Northeast 441 507 36,900  Level New York Center
Thu 10:49:00 PM 40.0353 -69.7006 62° Northeast 446 513 36,900  Level New York Center
Thu 10:49:57 PM 40.0922 -69.5614 62° Northeast 441 507 36,900  Level New York Center
Thu 10:50:57 PM 40.1511 -69.4192 62° Northeast 441 507 36,900 50 Level New York Center
Thu 10:51:57 PM 40.2058 -69.2822 62° Northeast 431 496 37,000 50 Climbing New York Center
Thu 10:52:58 PM 40.2647 -69.1450 61° Northeast 431 496 37,000 246 Level New York Center
Thu 10:53:59 PM 40.3211 -69.0078 62° Northeast 431 496 37,500 492 Climbing New York Center
Thu 10:55:00 PM 40.3775 -68.8700 62° Northeast 426 490 38,000 202 Climbing New York Center
Thu 10:55:58 PM 40.4356 -68.7269 62° Northeast 426 490 37,900  Descending New York Center
Thu 10:56:59 PM 40.4933 -68.5833 62° Northeast 431 496 38,000 50 Climbing New York Center
Thu 10:57:58 PM 40.5492 -68.4422 62° Northeast 442 509 38,000  Level New York Center
Thu 10:58:59 PM 40.6047 -68.3011 63° Northeast 437 503 38,000 -50 Level New York Center
Thu 10:59:59 PM 40.6642 -68.1567 61° Northeast 437 503 37,900  Descending New York Center
Thu 11:00:57 PM 40.7156 -68.0233 63° Northeast 444 511 38,000  Climbing New York Center
Thu 11:02:00 PM 40.7725 -67.8786 63° Northeast 444 511 37,900 -50 Descending New York Center
Thu 11:02:57 PM 40.8336 -67.7308 61° Northeast 444 511 37,900  Level New York Center
Thu 11:03:59 PM 40.8903 -67.5858 63° Northeast 438 504 37,900 50 Level New York Center
Thu 11:04:58 PM 40.9444 -67.4378 64° Northeast 443 510 38,000  Climbing New York Center
Thu 11:05:57 PM 41.0050 -67.2892 62° Northeast 443 510 37,900 -50 Descending New York Center
Thu 11:06:58 PM 41.0631 -67.1431 62° Northeast 443 510 37,900 50 Level New York Center
Thu 11:07:58 PM 41.1167 -67.0000 78° East 465 535 38,000 54 Climbing New York Oceanic (ODAPS)
Thu 11:08:49 PM 41.1333 -66.8500 78° East 464 534 38,000  Level New York Oceanic (ODAPS)
Thu 11:10:46 PM 41.2000 -66.5167 79° East 463 533 38,000  Level New York Oceanic (ODAPS)
Thu 11:14:00 PM 41.2723 -65.9882 79° East 465 535 38,000  Level FlightAware Transoceanic
Thu 11:15:00 PM 41.2891 -65.8348 79° East 464 534 38,000  Level FlightAware Transoceanic
Thu 11:16:00 PM 41.3262 -65.6689 79° East 463 533 38,000  Level FlightAware Transoceanic
Thu 11:17:00 PM 41.3506 -65.4990 79° East 463 533 38,000  Level FlightAware Transoceanic
Thu 11:18:00 PM 41.3749 -65.3289 79° East 463 533 38,000  Level FlightAware Transoceanic
Thu 11:19:00 PM 41.3989 -65.1587 79° East 463 533 38,000  Level FlightAware Transoceanic
Thu 11:20:00 PM 41.4226 -64.9884 80° East 463 533 38,000  Level FlightAware Transoceanic
Thu 11:21:00 PM 41.4461 -64.8179 80° East 463 533 38,000  Level FlightAware Transoceanic
Thu 11:22:00 PM 41.4693 -64.6474 80° East 463 533 38,000  Level FlightAware Transoceanic
Thu 11:23:00 PM 41.4923 -64.4767 80° East 463 533 38,000  Level FlightAware Transoceanic
Thu 11:24:00 PM 41.5150 -64.3059 80° East 463 533 38,000  Level FlightAware Transoceanic
Thu 11:25:00 PM 41.5375 -64.1349 80° East 463 533 38,000  Level FlightAware Transoceanic
Thu 11:26:00 PM 41.5597 -63.9639 80° East 463 533 38,000  Level FlightAware Transoceanic
Thu 11:27:00 PM 41.5817 -63.7927 80° East 463 533 38,000  Level FlightAware Transoceanic
Thu 11:28:00 PM 41.6034 -63.6214 80° East 463 533 38,000  Level FlightAware Transoceanic
Thu 11:29:00 PM 41.6248 -63.4501 81° East 463 533 38,000  Level FlightAware Transoceanic
Thu 11:30:00 PM 41.6460 -63.2785 81° East 463 533 38,000  Level FlightAware Transoceanic
Thu 11:31:00 PM 41.6670 -63.1069 81° East 463 533 38,000  Level FlightAware Transoceanic
Thu 11:31:02 PM 41.6667 -63.1000 81° East 459 528 38,000  Level New York Oceanic (ODAPS)
Thu 11:32:00 PM 41.6877 -62.9352 81° East 463 533 38,000  Level FlightAware Transoceanic
Thu 11:33:00 PM 41.7081 -62.7634 81° East 463 533 38,000  Level FlightAware Transoceanic
Thu 11:34:00 PM 41.7283 -62.5914 81° East 463 533 38,000  Level FlightAware Transoceanic
Thu 11:35:00 PM 41.7482 -62.4194 81° East 463 533 38,000  Level FlightAware Transoceanic
Thu 11:36:00 PM 41.7679 -62.2472 81° East 463 533 38,000  Level FlightAware Transoceanic
Thu 11:37:00 PM 41.7870 -62.0703 81° East 459 528 38,000  Level FlightAware Transoceanic
Thu 11:38:00 PM 41.8062 -61.8983 82° East 459 528 38,000  Level FlightAware Transoceanic
Thu 11:39:00 PM 41.8251 -61.7262 82° East 459 528 38,000  Level FlightAware Transoceanic
Thu 11:40:00 PM 41.8438 -61.5540 82° East 459 528 38,000  Level FlightAware Transoceanic
Thu 11:41:00 PM 41.8621 -61.3817 82° East 459 528 38,000  Level FlightAware Transoceanic
Thu 11:42:00 PM 41.8803 -61.2094 82° East 459 528 38,000  Level FlightAware Transoceanic
Thu 11:43:00 PM 41.8982 -61.0369 82° East 459 528 38,000  Level FlightAware Transoceanic
Thu 11:44:00 PM 41.9158 -60.8643 82° East 459 528 38,000  Level FlightAware Transoceanic
Thu 11:45:00 PM 41.9331 -60.6916 82° East 459 528 38,000  Level FlightAware Transoceanic
Thu 11:46:00 PM 41.9502 -60.5188 82° East 459 528 38,000  Level FlightAware Transoceanic
Thu 11:47:00 PM 41.9671 -60.3460 83° East 459 528 38,000  Level FlightAware Transoceanic
Thu 11:48:00 PM 41.9837 -60.1730 83° East 459 528 38,000  Level FlightAware Transoceanic
Thu 11:49:00 PM 42.0000 -60.0000 71° East 459 528 38,000  Level FlightAware Transoceanic
Thu 11:49:31 PM 42.0000 -60.0000 71° East 463 533 38,000  Level New York Oceanic (ODAPS)
Thu 11:50:00 PM 42.0403 -59.8389 71° East 459 528 38,000  Level FlightAware Transoceanic
Thu 11:51:00 PM 42.0804 -59.6776 72° East 459 528 38,000  Level FlightAware Transoceanic
Thu 11:51:20 PM 42.0833 -59.6833 72° East 463 533 38,000  Level New York Oceanic (ODAPS)
Thu 11:52:00 PM 42.1203 -59.5162 72° East 459 528 38,000  Level FlightAware Transoceanic
Thu 11:53:00 PM 42.1599 -59.3545 72° East 459 528 38,000  Level FlightAware Transoceanic
Thu 11:54:00 PM 42.1993 -59.1926 72° East 459 528 38,000  Level FlightAware Transoceanic
Thu 11:55:00 PM 42.2425 -59.0140 72° East 463 533 38,000  Level FlightAware Transoceanic
Thu 11:56:00 PM 42.2821 -58.8489 72° East 463 533 38,000  Level FlightAware Transoceanic
Thu 11:57:00 PM 42.3229 -58.6936 72° East 463 533 38,000  Level FlightAware Transoceanic
Thu 11:58:00 PM 42.3620 -58.5280 72° East 463 533 38,000  Level FlightAware Transoceanic
Thu 11:59:00 PM 42.4009 -58.3621 72° East 463 533 38,000  Level FlightAware Transoceanic
Fri 12:00:00 AM 42.4395 -58.1960 73° East 463 533 38,000  Level FlightAware Transoceanic
Fri 12:01:00 AM 42.4779 -58.0297 73° East 463 533 38,000  Level FlightAware Transoceanic
Fri 12:02:00 AM 42.5160 -57.8632 73° East 463 533 38,000  Level FlightAware Transoceanic
Fri 12:03:00 AM 42.5539 -57.6965 73° East 463 533 38,000  Level FlightAware Transoceanic
Fri 12:04:00 AM 42.5915 -57.5296 73° East 463 533 38,000  Level FlightAware Transoceanic
Fri 12:05:00 AM 42.6290 -57.3625 73° East 463 533 38,000  Level FlightAware Transoceanic
Fri 12:06:00 AM 42.6661 -57.1952 73° East 463 533 38,000  Level FlightAware Transoceanic
Fri 12:07:00 AM 42.7030 -57.0277 73° East 463 533 38,000  Level FlightAware Transoceanic
Fri 12:08:00 AM 42.7397 -56.8600 73° East 463 533 38,000  Level FlightAware Transoceanic
Fri 12:09:00 AM 42.7762 -56.6921 74° East 463 533 38,000  Level FlightAware Transoceanic
Fri 12:10:00 AM 42.8124 -56.5240 74° East 463 533 38,000  Level FlightAware Transoceanic
Fri 12:11:00 AM 42.8483 -56.3557 74° East 463 533 38,000  Level FlightAware Transoceanic
Fri 12:11:43 AM 42.8500 -56.3500 74° East 459 528 38,000  Level New York Oceanic (ODAPS)
Fri 12:12:00 AM 42.8840 -56.1872 74° East 463 533 38,000  Level FlightAware Transoceanic
Fri 12:13:00 AM 42.9195 -56.0186 74° East 463 533 38,000  Level FlightAware Transoceanic
Fri 12:14:00 AM 42.9547 -55.8497 74° East 463 533 38,000  Level FlightAware Transoceanic
Fri 12:15:00 AM 42.9896 -55.6806 74° East 463 533 38,000  Level FlightAware Transoceanic
Fri 12:16:00 AM 43.0243 -55.5114 74° East 463 533 38,000  Level FlightAware Transoceanic
Fri 12:17:00 AM 43.0547 -55.3638 75° East 459 528 38,000  Level FlightAware Transoceanic
Fri 12:18:00 AM 43.0880 -55.1988 75° East 459 528 38,000  Level FlightAware Transoceanic
Fri 12:19:00 AM 43.1211 -55.0337 75° East 459 528 38,000  Level FlightAware Transoceanic
Fri 12:20:00 AM 43.1539 -54.8683 75° East 459 528 38,000  Level FlightAware Transoceanic
Fri 12:21:00 AM 43.1865 -54.7028 75° East 459 528 38,000  Level FlightAware Transoceanic
Fri 12:22:00 AM 43.2188 -54.5371 75° East 459 528 38,000  Level FlightAware Transoceanic
Fri 12:23:00 AM 43.2509 -54.3712 75° East 459 528 38,000  Level FlightAware Transoceanic
Fri 12:24:00 AM 43.2828 -54.2051 75° East 459 528 38,000  Level FlightAware Transoceanic
Fri 12:25:00 AM 43.3144 -54.0389 75° East 459 528 38,000  Level FlightAware Transoceanic
Fri 12:26:00 AM 43.3458 -53.8725 76° East 459 528 38,000  Level FlightAware Transoceanic
Fri 12:27:00 AM 43.3770 -53.7059 76° East 459 528 38,000  Level FlightAware Transoceanic
Fri 12:28:00 AM 43.4079 -53.5392 76° East 459 528 38,000  Level FlightAware Transoceanic
Fri 12:29:00 AM 43.4385 -53.3723 76° East 459 528 38,000  Level FlightAware Transoceanic
Fri 12:30:00 AM 43.4689 -53.2052 76° East 459 528 38,000  Level FlightAware Transoceanic
Fri 12:31:00 AM 43.4991 -53.0379 76° East 459 528 38,000  Level FlightAware Transoceanic
Fri 12:31:52 AM 43.5167 -52.9500 76° East 460 529 38,000  Level New York Oceanic (ODAPS)
Fri 12:32:00 AM 43.5290 -52.8705 76° East 459 528 38,000  Level FlightAware Transoceanic
Fri 12:33:00 AM 43.5587 -52.7029 76° East 459 528 38,000  Level FlightAware Transoceanic
Fri 12:34:00 AM 43.5882 -52.5352 76° East 459 528 38,000  Level FlightAware Transoceanic
Fri 12:35:00 AM 43.6174 -52.3673 77° East 459 528 38,000  Level FlightAware Transoceanic
Fri 12:36:00 AM 43.6463 -52.1992 77° East 459 528 38,000  Level FlightAware Transoceanic
Fri 12:37:00 AM 43.6750 -52.0310 77° East 459 528 38,000  Level FlightAware Transoceanic
Fri 12:38:00 AM 43.6959 -51.9143 77° East 460 529 38,000  Level FlightAware Transoceanic
Fri 12:39:00 AM 43.7249 -51.7411 77° East 460 529 38,000  Level FlightAware Transoceanic
Fri 12:40:00 AM 43.7536 -51.5677 77° East 460 529 38,000  Level FlightAware Transoceanic
Fri 12:41:00 AM 43.7820 -51.3942 77° East 460 529 38,000  Level FlightAware Transoceanic
Fri 12:42:00 AM 43.8102 -51.2205 77° East 460 529 38,000  Level FlightAware Transoceanic
Fri 12:43:00 AM 43.8381 -51.0466 78° East 460 529 38,000  Level FlightAware Transoceanic
Fri 12:44:00 AM 43.8657 -50.8726 78° East 460 529 38,000  Level FlightAware Transoceanic
Fri 12:45:00 AM 43.8931 -50.6984 78° East 460 529 38,000  Level FlightAware Transoceanic
Fri 12:46:00 AM 43.9202 -50.5240 78° East 460 529 38,000  Level FlightAware Transoceanic
Fri 12:47:00 AM 43.9471 -50.3495 78° East 460 529 38,000  Level FlightAware Transoceanic
Fri 12:48:00 AM 43.9737 -50.1748 78° East 460 529 38,000  Level FlightAware Transoceanic
Fri 12:49:00 AM 44.0000 -50.0000 71° East 460 529 38,000  Level FlightAware Transoceanic
Fri 12:49:08 AM 44.0000 -50.0000 71° East 462 532 38,000  Level New York Oceanic (ODAPS)
Fri 12:50:00 AM 44.0417 -49.8338 71° East 460 529 38,000  Level FlightAware Transoceanic
Fri 12:51:00 AM 44.0832 -49.6673 71° East 460 529 38,000  Level FlightAware Transoceanic
Fri 12:52:00 AM 44.1244 -49.5006 71° East 460 529 38,000  Level FlightAware Transoceanic
Fri 12:52:10 AM 44.1333 -49.4667 71° East 460 529 38,000  Level New York Oceanic (ODAPS)
Fri 12:53:00 AM 44.1654 -49.3337 71° East 460 529 38,000  Level FlightAware Transoceanic
Fri 12:54:00 AM 44.2061 -49.1665 71° East 460 529 38,000  Level FlightAware Transoceanic
Fri 12:55:00 AM 44.2509 -48.9815 71° East 462 532 38,000  Level FlightAware Transoceanic
Fri 12:56:00 AM 44.2918 -48.8109 72° East 462 532 38,000  Level FlightAware Transoceanic
Fri 12:57:00 AM 44.3325 -48.6401 72° East 462 532 38,000  Level FlightAware Transoceanic
Fri 12:58:00 AM 44.3787 -48.4465 72° East 460 529 38,000  Level FlightAware Transoceanic
Fri 12:59:00 AM 44.4187 -48.2756 72° East 460 529 38,000  Level FlightAware Transoceanic
Fri 01:00:00 AM 44.4585 -48.1045 72° East 460 529 38,000  Level FlightAware Transoceanic
Fri 01:01:00 AM 44.4980 -47.9332 72° East 460 529 38,000  Level FlightAware Transoceanic
Fri 01:02:00 AM 44.5372 -47.7617 72° East 460 529 38,000  Level FlightAware Transoceanic
Fri 01:03:00 AM 44.5762 -47.5899 72° East 460 529 38,000  Level FlightAware Transoceanic
Fri 01:04:00 AM 44.6150 -47.4179 73° East 460 529 38,000  Level FlightAware Transoceanic
Fri 01:05:00 AM 44.6534 -47.2456 73° East 460 529 38,000  Level FlightAware Transoceanic
Fri 01:06:00 AM 44.6916 -47.0732 73° East 460 529 38,000  Level FlightAware Transoceanic
Fri 01:07:00 AM 44.7296 -46.9005 73° East 460 529 38,000  Level FlightAware Transoceanic
Fri 01:08:00 AM 44.7673 -46.7276 73° East 460 529 38,000  Level FlightAware Transoceanic
Fri 01:09:00 AM 44.8047 -46.5544 73° East 460 529 38,000  Level FlightAware Transoceanic
Fri 01:10:00 AM 44.8419 -46.3810 73° East 460 529 38,000  Level FlightAware Transoceanic
Fri 01:11:00 AM 44.8788 -46.2075 73° East 460 529 38,000  Level FlightAware Transoceanic
Fri 01:12:00 AM 44.9154 -46.0336 73° East 460 529 38,000  Level FlightAware Transoceanic
Fri 01:13:00 AM 44.9518 -45.8596 74° East 460 529 38,000  Level FlightAware Transoceanic
Fri 01:14:00 AM 44.9879 -45.6853 74° East 460 529 38,000  Level FlightAware Transoceanic
Fri 01:15:00 AM 45.0238 -45.5109 74° East 460 529 38,000  Level FlightAware Transoceanic
Fri 01:16:00 AM 45.0594 -45.3362 74° East 460 529 38,000  Level FlightAware Transoceanic
Fri 01:17:00 AM 45.0947 -45.1613 74° East 460 529 38,000  Level FlightAware Transoceanic
Fri 01:18:00 AM 45.1297 -44.9861 74° East 460 529 38,000  Level FlightAware Transoceanic
Fri 01:19:00 AM 45.1645 -44.8108 74° East 460 529 38,000  Level FlightAware Transoceanic
Fri 01:20:00 AM 45.1990 -44.6353 74° East 460 529 38,000  Level FlightAware Transoceanic
Fri 01:21:00 AM 45.2333 -44.4595 75° East 460 529 38,000  Level FlightAware Transoceanic
Fri 01:22:00 AM 45.2672 -44.2835 75° East 460 529 38,000  Level FlightAware Transoceanic
Fri 01:23:00 AM 45.3009 -44.1073 75° East 460 529 38,000  Level FlightAware Transoceanic
Fri 01:24:00 AM 45.3344 -43.9309 75° East 460 529 38,000  Level FlightAware Transoceanic
Fri 01:25:00 AM 45.3675 -43.7543 75° East 460 529 38,000  Level FlightAware Transoceanic
Fri 01:26:00 AM 45.4004 -43.5775 75° East 460 529 38,000  Level FlightAware Transoceanic
Fri 01:27:00 AM 45.4330 -43.4005 75° East 460 529 38,000  Level FlightAware Transoceanic
Fri 01:28:00 AM 45.4654 -43.2233 75° East 460 529 38,000  Level FlightAware Transoceanic
Fri 01:29:00 AM 45.4974 -43.0459 76° East 460 529 38,000  Level FlightAware Transoceanic
Fri 01:30:00 AM 45.5292 -42.8682 76° East 460 529 38,000  Level FlightAware Transoceanic
Fri 01:31:00 AM 45.5607 -42.6904 76° East 460 529 38,000  Level FlightAware Transoceanic
Fri 01:32:00 AM 45.5920 -42.5124 76° East 460 529 38,000  Level FlightAware Transoceanic
Fri 01:33:00 AM 45.6230 -42.3342 76° East 460 529 38,000  Level FlightAware Transoceanic
Fri 01:34:00 AM 45.6536 -42.1558 76° East 460 529 38,000  Level FlightAware Transoceanic
Fri 01:35:00 AM 45.6840 -41.9771 76° East 460 529 38,000  Level FlightAware Transoceanic
Fri 01:36:00 AM 45.7142 -41.7984 77° East 460 529 38,000  Level FlightAware Transoceanic
Fri 01:37:00 AM 45.7440 -41.6194 77° East 460 529 38,000  Level FlightAware Transoceanic
Fri 01:38:00 AM 45.7736 -41.4402 77° East 460 529 38,000  Level FlightAware Transoceanic
Fri 01:39:00 AM 45.8029 -41.2608 77° East 460 529 38,000  Level FlightAware Transoceanic
Fri 01:40:00 AM 45.8319 -41.0812 77° East 460 529 38,000  Level FlightAware Transoceanic
Fri 01:41:00 AM 45.8606 -40.9015 77° East 460 529 38,000  Level FlightAware Transoceanic
Fri 01:42:00 AM 45.8890 -40.7215 77° East 460 529 38,000  Level FlightAware Transoceanic
Fri 01:43:00 AM 45.9172 -40.5414 77° East 460 529 38,000  Level FlightAware Transoceanic
Fri 01:44:00 AM 45.9451 -40.3611 78° East 460 529 38,000  Level FlightAware Transoceanic
Fri 01:45:00 AM 45.9727 -40.1807 78° East 460 529 38,000  Level FlightAware Transoceanic
Fri 01:46:00 AM 46.0000 -40.0000 70° East 460 529 38,000  Level FlightAware Transoceanic
Fri 01:47:00 AM 46.0439 -39.8252 70° East 460 529 38,000  Level FlightAware Transoceanic
Fri 01:48:00 AM 46.0876 -39.6501 70° East 460 529 38,000  Level FlightAware Transoceanic
Fri 01:49:00 AM 46.1311 -39.4747 70° East 460 529 38,000  Level FlightAware Transoceanic
Fri 01:50:00 AM 46.1742 -39.2990 71° East 460 529 38,000  Level FlightAware Transoceanic
Fri 01:51:00 AM 46.2171 -39.1231 71° East 460 529 38,000  Level FlightAware Transoceanic
Fri 01:52:00 AM 46.2597 -38.9468 71° East 460 529 38,000  Level FlightAware Transoceanic
Fri 01:53:00 AM 46.3020 -38.7704 71° East 460 529 38,000  Level FlightAware Transoceanic
Fri 01:54:00 AM 46.3441 -38.5936 71° East 460 529 38,000  Level FlightAware Transoceanic
Fri 01:55:00 AM 46.3859 -38.4166 71° East 460 529 38,000  Level FlightAware Transoceanic
Fri 01:56:00 AM 46.4274 -38.2393 71° East 460 529 38,000  Level FlightAware Transoceanic
Fri 01:57:00 AM 46.4687 -38.0617 71° East 460 529 38,000  Level FlightAware Transoceanic
Fri 01:58:00 AM 46.5096 -37.8839 72° East 460 529 38,000  Level FlightAware Transoceanic
Fri 01:59:00 AM 46.5503 -37.7057 72° East 460 529 38,000  Level FlightAware Transoceanic
Fri 02:00:00 AM 46.5908 -37.5274 72° East 460 529 38,000  Level FlightAware Transoceanic
Fri 02:01:00 AM 46.6309 -37.3487 72° East 460 529 38,000  Level FlightAware Transoceanic
Fri 02:02:00 AM 46.6708 -37.1698 72° East 460 529 38,000  Level FlightAware Transoceanic
Fri 02:03:00 AM 46.7103 -36.9907 72° East 460 529 38,000  Level FlightAware Transoceanic
Fri 02:04:00 AM 46.7496 -36.8112 72° East 460 529 38,000  Level FlightAware Transoceanic
Fri 02:05:00 AM 46.7887 -36.6315 72° East 460 529 38,000  Level FlightAware Transoceanic
Fri 02:06:00 AM 46.8274 -36.4516 73° East 460 529 38,000  Level FlightAware Transoceanic
Fri 02:07:00 AM 46.8659 -36.2714 73° East 460 529 38,000  Level FlightAware Transoceanic
Fri 02:08:00 AM 46.9040 -36.0909 73° East 460 529 38,000  Level FlightAware Transoceanic
Fri 02:09:00 AM 46.9419 -35.9102 73° East 460 529 38,000  Level FlightAware Transoceanic
Fri 02:10:00 AM 46.9795 -35.7292 73° East 460 529 38,000  Level FlightAware Transoceanic
Fri 02:11:00 AM 47.0169 -35.5480 73° East 460 529 38,000  Level FlightAware Transoceanic
Fri 02:12:00 AM 47.0539 -35.3665 73° East 460 529 38,000  Level FlightAware Transoceanic
Fri 02:13:00 AM 47.0906 -35.1848 74° East 460 529 38,000  Level FlightAware Transoceanic
Fri 02:14:00 AM 47.1271 -35.0028 74° East 460 529 38,000  Level FlightAware Transoceanic
Fri 02:15:00 AM 47.1633 -34.8206 74° East 460 529 38,000  Level FlightAware Transoceanic
Fri 02:16:00 AM 47.1992 -34.6381 74° East 460 529 38,000  Level FlightAware Transoceanic
Fri 02:17:00 AM 47.2347 -34.4554 74° East 460 529 38,000  Level FlightAware Transoceanic
Fri 02:18:00 AM 47.2700 -34.2724 74° East 460 529 38,000  Level FlightAware Transoceanic
Fri 02:19:00 AM 47.3050 -34.0892 74° East 460 529 38,000  Level FlightAware Transoceanic
Fri 02:20:00 AM 47.3398 -33.9057 74° East 460 529 38,000  Level FlightAware Transoceanic
Fri 02:21:00 AM 47.3742 -33.7220 75° East 460 529 38,000  Level FlightAware Transoceanic
Fri 02:22:00 AM 47.4083 -33.5381 75° East 460 529 38,000  Level FlightAware Transoceanic
Fri 02:23:00 AM 47.4422 -33.3539 75° East 460 529 38,000  Level FlightAware Transoceanic
Fri 02:24:00 AM 47.4757 -33.1695 75° East 460 529 38,000  Level FlightAware Transoceanic
Fri 02:25:00 AM 47.5089 -32.9849 75° East 460 529 38,000  Level FlightAware Transoceanic
Fri 02:26:00 AM 47.5419 -32.8000 75° East 460 529 38,000  Level FlightAware Transoceanic
Fri 02:27:00 AM 47.5745 -32.6149 75° East 460 529 38,000  Level FlightAware Transoceanic
Fri 02:28:00 AM 47.6069 -32.4296 76° East 460 529 38,000  Level FlightAware Transoceanic
Fri 02:29:00 AM 47.6389 -32.2440 76° East 460 529 38,000  Level FlightAware Transoceanic
Fri 02:30:00 AM 47.6707 -32.0582 76° East 460 529 38,000  Level FlightAware Transoceanic
Fri 02:31:00 AM 47.7021 -31.8722 76° East 460 529 38,000  Level FlightAware Transoceanic
Fri 02:32:00 AM 47.7333 -31.6859 76° East 460 529 38,000  Level FlightAware Transoceanic
Fri 02:33:00 AM 47.7641 -31.4995 76° East 460 529 38,000  Level FlightAware Transoceanic
Fri 02:34:00 AM 47.7947 -31.3128 76° East 460 529 38,000  Level FlightAware Transoceanic
Fri 02:35:00 AM 47.8249 -31.1259 77° East 460 529 38,000  Level FlightAware Transoceanic
Fri 02:36:00 AM 47.8549 -30.9388 77° East 460 529 38,000  Level FlightAware Transoceanic
Fri 02:37:00 AM 47.8845 -30.7514 77° East 460 529 38,000  Level FlightAware Transoceanic
Fri 02:38:00 AM 47.9138 -30.5639 77° East 460 529 38,000  Level FlightAware Transoceanic
Fri 02:39:00 AM 47.9429 -30.3761 77° East 460 529 38,000  Level FlightAware Transoceanic
Fri 02:40:00 AM 47.9716 -30.1882 77° East 460 529 38,000 -6 Level FlightAware Transoceanic
Fri 02:41:00 AM 48.0043 -30.0058 75° East  Level Estimated
Fri 02:42:00 AM 48.0368 -29.8232 75° East  Level Estimated
Fri 02:43:00 AM 48.0689 -29.6403 75° East  Level Estimated
Fri 02:44:00 AM 48.1008 -29.4572 75° East  Level Estimated
Fri 02:45:00 AM 48.1324 -29.2739 75° East  Level Estimated
Fri 02:46:00 AM 48.1636 -29.0904 76° East  Level Estimated
Fri 02:47:00 AM 48.1946 -28.9066 76° East  Level Estimated
Fri 02:48:00 AM 48.2253 -28.7227 76° East  Level Estimated
Fri 02:49:00 AM 48.2557 -28.5385 76° East  Level Estimated
Fri 02:50:00 AM 48.2858 -28.3540 76° East  Level Estimated
Fri 02:51:00 AM 48.3156 -28.1694 76° East  Level Estimated
Fri 02:52:00 AM 48.3452 -27.9846 76° East  Level Estimated
Fri 02:53:00 AM 48.3744 -27.7995 77° East  Level Estimated
Fri 02:54:00 AM 48.4033 -27.6142 77° East  Level Estimated
Fri 02:55:00 AM 48.4319 -27.4288 77° East  Level Estimated
Fri 02:56:00 AM 48.4603 -27.2431 77° East  Level Estimated
Fri 02:57:00 AM 48.4883 -27.0572 77° East  Level Estimated
Fri 02:58:00 AM 48.5160 -26.8711 77° East  Level Estimated
Fri 02:59:00 AM 48.5434 -26.6848 77° East  Level Estimated
Fri 03:00:00 AM 48.5706 -26.4983 78° East  Level Estimated
Fri 03:01:00 AM 48.5974 -26.3116 78° East  Level Estimated
Fri 03:02:00 AM 48.6239 -26.1247 78° East  Level Estimated
Fri 03:03:00 AM 48.6502 -25.9376 78° East  Level Estimated
Fri 03:04:00 AM 48.6761 -25.7503 78° East  Level Estimated
Fri 03:05:00 AM 48.7017 -25.5628 78° East  Level Estimated
Fri 03:06:00 AM 48.7270 -25.3752 78° East  Level Estimated
Fri 03:07:00 AM 48.7520 -25.1873 79° East  Level Estimated
Fri 03:08:00 AM 48.7767 -24.9993 79° East  Level Estimated
Fri 03:09:00 AM 48.8011 -24.8110 79° East  Level Estimated
Fri 03:10:00 AM 48.8252 -24.6226 79° East  Level Estimated
Fri 03:11:00 AM 48.8489 -24.4340 79° East  Level Estimated
Fri 03:12:00 AM 48.8724 -24.2453 79° East  Level Estimated
Fri 03:13:00 AM 48.8956 -24.0563 79° East  Level Estimated
Fri 03:14:00 AM 48.9184 -23.8672 80° East  Level Estimated
Fri 03:15:00 AM 48.9410 -23.6779 80° East  Level Estimated
Fri 03:16:00 AM 48.9632 -23.4884 80° East  Level Estimated
Fri 03:17:00 AM 48.9851 -23.2988 80° East  Level Estimated
Fri 03:18:00 AM 49.0067 -23.1090 80° East  Level Estimated
Fri 03:19:00 AM 49.0280 -22.9191 80° East  Level Estimated
Fri 03:20:00 AM 49.0490 -22.7289 80° East  Level Estimated
Fri 03:21:00 AM 49.0697 -22.5387 81° East  Level Estimated
Fri 03:22:00 AM 49.0901 -22.3482 81° East  Level Estimated
Fri 03:23:00 AM 49.1101 -22.1576 81° East  Level Estimated
Fri 03:24:00 AM 49.1298 -21.9669 81° East  Level Estimated
Fri 03:25:00 AM 49.1493 -21.7760 81° East  Level Estimated
Fri 03:26:00 AM 49.1684 -21.5850 81° East  Level Estimated
Fri 03:27:00 AM 49.1872 -21.3938 81° East  Level Estimated
Fri 03:28:00 AM 49.2056 -21.2024 82° East  Level Estimated
Fri 03:29:00 AM 49.2238 -21.0110 82° East  Level Estimated
Fri 03:30:00 AM 49.2416 -20.8194 82° East  Level Estimated
Fri 03:31:00 AM 49.2592 -20.6276 82° East  Level Estimated
Fri 03:32:00 AM 49.2764 -20.4357 82° East  Level Estimated
Fri 03:33:00 AM 49.2933 -20.2437 82° East  Level Estimated
Fri 03:34:00 AM 49.3098 -20.0516 82° East  Level Estimated
Fri 03:35:00 AM 49.3261 -19.8593 83° East  Level Estimated
Fri 03:36:00 AM 49.3420 -19.6669 83° East  Level Estimated
Fri 03:37:00 AM 49.3576 -19.4743 83° East  Level Estimated
Fri 03:38:00 AM 49.3729 -19.2817 83° East  Level Estimated
Fri 03:39:00 AM 49.3879 -19.0889 83° East  Level Estimated
Fri 03:40:00 AM 49.4025 -18.8960 83° East  Level Estimated
Fri 03:41:00 AM 49.4169 -18.7031 83° East  Level Estimated
Fri 03:42:00 AM 49.4309 -18.5099 84° East  Level Estimated
Fri 03:43:00 AM 49.4445 -18.3167 84° East  Level Estimated
Fri 03:44:00 AM 49.4579 -18.1234 84° East  Level Estimated
Fri 03:45:00 AM 49.4710 -17.9300 84° East  Level Estimated
Fri 03:46:00 AM 49.4837 -17.7364 84° East  Level Estimated
Fri 03:47:00 AM 49.4961 -17.5428 84° East  Level Estimated
Fri 03:48:00 AM 49.5081 -17.3491 84° East  Level Estimated
Fri 03:49:00 AM 49.5199 -17.1553 85° East  Level Estimated
Fri 03:50:00 AM 49.5313 -16.9614 85° East  Level Estimated
Fri 03:51:00 AM 49.5424 -16.7674 85° East  Level Estimated
Fri 03:52:00 AM 49.5532 -16.5733 85° East  Level Estimated
Fri 03:53:00 AM 49.5637 -16.3791 85° East  Level Estimated
Fri 03:54:00 AM 49.5738 -16.1849 85° East  Level Estimated
Fri 03:55:00 AM 49.5836 -15.9905 85° East  Level Estimated
Fri 03:56:00 AM 49.5931 -15.7961 86° East  Level Estimated
Fri 03:57:00 AM 49.6022 -15.6016 86° East  Level Estimated
Fri 03:58:00 AM 49.6110 -15.4071 86° East  Level Estimated
Fri 03:59:00 AM 49.6195 -15.2125 86° East  Level Estimated
Fri 04:00:00 AM 49.6277 -15.0178 86° East  Level Estimated
Fri 04:01:00 AM 49.6356 -14.8230 86° East  Level Estimated
Fri 04:02:00 AM 49.6431 -14.6282 87° East  Level Estimated
Fri 04:03:00 AM 49.6503 -14.4333 87° East  Level Estimated
Fri 04:04:00 AM 49.6572 -14.2384 87° East  Level Estimated
Fri 04:05:00 AM 49.6637 -14.0434 87° East  Level Estimated
Fri 04:06:00 AM 49.6699 -13.8483 87° East  Level Estimated
Fri 04:07:00 AM 49.6758 -13.6532 87° East  Level Estimated
Fri 04:08:00 AM 49.6813 -13.4581 87° East  Level Estimated
Fri 04:09:00 AM 49.6866 -13.2629 88° East  Level Estimated
Fri 04:10:00 AM 49.6915 -13.0677 88° East  Level Estimated
Fri 04:11:00 AM 49.6960 -12.8725 88° East  Level Estimated
Fri 04:12:00 AM 49.7003 -12.6772 88° East  Level Estimated
Fri 04:13:00 AM 49.7042 -12.4819 88° East  Level Estimated
Fri 04:14:00 AM 49.7078 -12.2865 88° East  Level Estimated
Fri 04:15:00 AM 49.7110 -12.0911 88° East  Level Estimated
Fri 04:16:00 AM 49.7140 -11.8957 89° East  Level Estimated
Fri 04:17:00 AM 49.7166 -11.7003 89° East  Level Estimated
Fri 04:18:00 AM 49.7188 -11.5049 89° East  Level Estimated
Fri 04:19:00 AM 49.7208 -11.3094 89° East  Level Estimated
Fri 04:20:00 AM 49.7224 -11.1139 89° East  Level Estimated
Fri 04:21:00 AM 49.7237 -10.9184 89° East  Level Estimated
Fri 04:21:36 AM 49.5934 -8.9762 89° East 480 552 37,400  Level FlightAware UK
Fri 04:21:54 AM 49.5875 -8.9131 98° East 480 552 37,500  Climbing FlightAware UK
Fri 04:22:12 AM 49.5817 -8.8500 98° East 480 552 37,400  Descending FlightAware UK
Fri 04:22:30 AM 49.5758 -8.7869 98° East 480 552 37,500 167 Climbing FlightAware UK
Fri 04:22:48 AM 49.5700 -8.7236 98° East 480 552 37,500  Level FlightAware UK
Fri 04:23:06 AM 49.5642 -8.6606 98° East 480 552 37,500  Level FlightAware UK
Fri 04:23:24 AM 49.5582 -8.5975 98° East 480 552 37,500  Level FlightAware UK
Fri 04:23:42 AM 49.5521 -8.5344 98° East 480 552 37,500  Level FlightAware UK
Fri 04:24:00 AM 49.5460 -8.4713 98° East 480 552 37,500  Level FlightAware UK
Fri 04:24:18 AM 49.5399 -8.4081 98° East 480 552 37,500  Level FlightAware UK
Fri 04:24:36 AM 49.5337 -8.3448 99° East 480 552 37,500  Level FlightAware UK
Fri 04:24:54 AM 49.5276 -8.2815 99° East 480 552 37,500  Level FlightAware UK
Fri 04:25:12 AM 49.5214 -8.2181 98° East 480 552 37,500  Level FlightAware UK
Fri 04:25:30 AM 49.5154 -8.1547 98° East 482 555 37,500  Level FlightAware UK
Fri 04:25:48 AM 49.5091 -8.0913 99° East 482 555 37,500  Level FlightAware UK
Fri 04:26:06 AM 49.5028 -8.0272 99° East 480 552 37,500  Level FlightAware UK
Fri 04:26:24 AM 49.4978 -7.9634 97° East 480 552 37,500  Level FlightAware UK
Fri 04:26:42 AM 49.4973 -7.8985 91° East 484 557 37,500  Level FlightAware UK
Fri 04:27:00 AM 49.4957 -7.8341 92° East 482 555 37,500  Level FlightAware UK
Fri 04:27:18 AM 49.4942 -7.7698 92° East 482 555 37,500  Level FlightAware UK
Fri 04:27:36 AM 49.4928 -7.7055 92° East 480 552 37,500  Level FlightAware UK
Fri 04:27:54 AM 49.4915 -7.6413 92° East 480 552 37,500  Level FlightAware UK
Fri 04:28:12 AM 49.4899 -7.5770 92° East 484 557 37,500  Level FlightAware UK
Fri 04:28:30 AM 49.4884 -7.5128 92° East 486 559 37,500  Level FlightAware UK
Fri 04:28:48 AM 49.4867 -7.4485 92° East 482 555 37,500  Level FlightAware UK
Fri 04:29:06 AM 49.4850 -7.3843 92° East 484 557 37,500  Level FlightAware UK
Fri 04:29:24 AM 49.4834 -7.3201 92° East 478 550 37,500  Level FlightAware UK
Fri 04:29:42 AM 49.4817 -7.2560 92° East 480 552 37,500  Level FlightAware UK
Fri 04:30:00 AM 49.4799 -7.1918 92° East 482 555 37,500  Level FlightAware UK
Fri 04:30:18 AM 49.4783 -7.1275 92° East 484 557 37,500  Level FlightAware UK
Fri 04:30:36 AM 49.4765 -7.0631 92° East 484 557 37,500  Level FlightAware UK
Fri 04:30:54 AM 49.4745 -6.9988 93° East 484 557 37,500  Level FlightAware UK
Fri 04:31:12 AM 49.4725 -6.9336 93° East 486 559 37,500  Level FlightAware UK
Fri 04:31:30 AM 49.4704 -6.8692 93° East 484 557 37,500  Level FlightAware UK
Fri 04:31:48 AM 49.4684 -6.8049 93° East 484 557 37,500  Level FlightAware UK
Fri 04:32:06 AM 49.4665 -6.7407 93° East 484 557 37,500  Level FlightAware UK
Fri 04:32:24 AM 49.4644 -6.6767 93° East 486 559 37,500  Level FlightAware UK
Fri 04:32:42 AM 49.4627 -6.6125 92° East 486 559 37,500  Level FlightAware UK
Fri 04:33:00 AM 49.4607 -6.5484 93° East 484 557 37,500  Level FlightAware UK
Fri 04:33:18 AM 49.4584 -6.4845 93° East 484 557 37,500  Level FlightAware UK
Fri 04:33:36 AM 49.4562 -6.4207 93° East 484 557 37,500  Level FlightAware UK
Fri 04:33:54 AM 49.4539 -6.3570 93° East 484 557 37,500  Level FlightAware UK
Fri 04:34:12 AM 49.4516 -6.2933 93° East 482 555 37,500  Level FlightAware UK
Fri 04:34:30 AM 49.4493 -6.2296 93° East 484 557 37,500  Level FlightAware UK
Fri 04:34:48 AM 49.4470 -6.1657 93° East 484 557 37,500  Level FlightAware UK
Fri 04:35:06 AM 49.4447 -6.1018 93° East 484 557 37,500  Level FlightAware UK
Fri 04:35:24 AM 49.4424 -6.0379 93° East 484 557 37,500  Level FlightAware UK
Fri 04:35:42 AM 49.4399 -5.9739 93° East 484 557 37,500  Level FlightAware UK
Fri 04:36:00 AM 49.4373 -5.9100 94° East 482 555 37,500  Level FlightAware UK
Fri 04:36:18 AM 49.4349 -5.8460 93° East 482 555 37,500  Level FlightAware UK
Fri 04:36:42 AM 49.4318 -5.7597 93° East 486 559 37,500  Level FlightAware UK
Fri 04:37:00 AM 49.4292 -5.6956 94° East 486 559 37,500  Level FlightAware UK
Fri 04:37:18 AM 49.4265 -5.6316 94° East 484 557 37,500  Level FlightAware UK
Fri 04:37:36 AM 49.4240 -5.5676 93° East 482 555 37,500  Level FlightAware UK
Fri 04:37:54 AM 49.4214 -5.5036 94° East 484 557 37,500  Level FlightAware UK
Fri 04:38:12 AM 49.4186 -5.4397 94° East 484 557 37,500  Level FlightAware UK
Fri 04:38:36 AM 49.4147 -5.3546 94° East 484 557 37,500  Level FlightAware UK
Fri 04:38:54 AM 49.4118 -5.2907 94° East 486 559 37,500  Level FlightAware UK
Fri 04:39:12 AM 49.4089 -5.2267 94° East 490 564 37,500  Level FlightAware UK
Fri 04:39:30 AM 49.4061 -5.1628 94° East 484 557 37,500  Level FlightAware UK
Fri 04:39:48 AM 49.4030 -5.0991 94° East 484 557 37,500  Level FlightAware UK
Fri 04:40:06 AM 49.4002 -5.0353 94° East 486 559 37,500  Level FlightAware UK
Fri 04:40:24 AM 49.3975 -4.9715 94° East 486 559 37,500  Level FlightAware UK
Fri 04:40:42 AM 49.3943 -4.9079 94° East 484 557 37,500  Level FlightAware UK
Fri 04:41:00 AM 49.3912 -4.8434 94° East 484 557 37,500  Level FlightAware UK
Fri 04:41:30 AM 49.3861 -4.7372 94° East 488 562 37,500  Level FlightAware UK
Fri 04:41:48 AM 49.3830 -4.6735 94° East 484 557 37,500  Level FlightAware UK
Fri 04:42:06 AM 49.3805 -4.6098 93° East 484 557 37,500  Level FlightAware UK
Fri 04:42:24 AM 49.3807 -4.5461 90° East 482 555 37,500  Level FlightAware UK
Fri 04:42:42 AM 49.3807 -4.4820 90° East 484 557 37,500  Level FlightAware UK
Fri 04:43:18 AM 49.3813 -4.3538 90° East 486 559 37,500  Level FlightAware UK
Fri 04:43:48 AM 49.3826 -4.2468 89° East 488 562 37,500  Level FlightAware UK
Fri 04:44:24 AM 49.3848 -4.1188 88° East 488 562 37,500  Level FlightAware UK
Fri 04:45:00 AM 49.3870 -3.9909 88° East 488 562 37,500  Level FlightAware UK
Fri 04:45:25 AM 49.3881 -3.9051 89° East 488 562 37,500  Level FlightAware UK
Fri 04:45:43 AM 49.3888 -3.8415 89° East 490 564 37,500  Level FlightAware UK
Fri 04:46:07 AM 49.3896 -3.7568 89° East 488 562 37,500  Level FlightAware UK
Fri 04:46:25 AM 49.3900 -3.6934 89° East 490 564 37,500  Level FlightAware UK
Fri 04:47:07 AM 49.3912 -3.5460 89° East 488 562 37,500  Level FlightAware UK
Fri 04:47:31 AM 49.3920 -3.4618 89° East 490 564 37,500  Level FlightAware UK
Fri 04:47:49 AM 49.3924 -3.3980 89° East 486 559 37,500  Level FlightAware UK
Fri 04:48:07 AM 49.3926 -3.3348 90° East 488 562 37,500  Level FlightAware UK
Fri 04:48:25 AM 49.3928 -3.2718 90° East 486 559 37,500  Level FlightAware UK
Fri 04:49:19 AM 49.3931 -3.0817 90° East 1 1 37,500  Level FlightAware UK
Fri 04:49:49 AM 49.3932 -2.9761 90° East 486 559 37,500  Level FlightAware UK
Fri 04:50:13 AM 49.3935 -2.8913 90° East 486 559 37,500 -125 Level FlightAware UK
Fri 04:50:37 AM 49.3933 -2.8066 90° East 488 562 37,400 -143 Descending FlightAware UK
Fri 04:50:55 AM 49.3932 -2.7420 90° East 490 564 37,400  Level FlightAware UK
Fri 04:51:13 AM 49.3931 -2.6783 90° East 492 566 37,400  Level FlightAware UK
Fri 04:51:31 AM 49.3928 -2.6147 90° East 492 566 37,400 167 Level FlightAware UK
Fri 04:51:49 AM 49.3927 -2.5515 90° East 486 559 37,500  Climbing FlightAware UK
Fri 04:52:25 AM 49.3927 -2.4244 90° East 490 564 37,400  Descending FlightAware UK
Fri 04:52:49 AM 49.3924 -2.3402 90° East 490 564 37,500 109 Climbing FlightAware UK
Fri 04:53:20 AM 49.3919 -2.2343 90° East 488 562 37,500  Level FlightAware UK
Fri 04:53:56 AM 49.3913 -2.1084 90° East 488 562 37,500  Level FlightAware UK
Fri 04:54:20 AM 49.3909 -2.0242 90° East 488 562 37,500  Level FlightAware UK
Fri 04:55:08 AM 49.3893 -1.8543 91° East 486 559 37,500 -83 Level FlightAware UK
Fri 04:55:32 AM 49.3887 -1.7697 91° East 490 564 37,400  Descending FlightAware UK
Fri 04:56:02 AM 49.3878 -1.6642 91° East 490 564 37,500 100 Climbing FlightAware UK
Fri 04:56:32 AM 49.3866 -1.5579 91° East 490 564 37,500  Level FlightAware UK
Fri 04:56:56 AM 49.3857 -1.4744 91° East 490 564 37,500 -200 Level FlightAware UK
Fri 04:57:32 AM 49.3841 -1.3483 91° East 474 545 37,300 -444 Descending FlightAware UK
Fri 04:57:50 AM 49.3831 -1.2885 91° East 470 541 37,100 -833 Descending FlightAware UK
Fri 04:58:08 AM 49.3821 -1.2286 91° East 456 525 36,800 -1,143 Descending FlightAware UK
Fri 04:58:32 AM 49.3811 -1.1508 91° East 446 513 36,300 -1,727 Descending FlightAware UK
Fri 04:59:14 AM 49.3792 -1.0182 91° East 440 506 34,900 -2,000 Descending FlightAware UK
Fri 04:59:32 AM 49.3783 -0.9616 91° East 442 509 34,300 -2,154 Descending FlightAware UK
Fri 05:00:32 AM 49.3750 -0.7761 91° East 428 493 32,100 -2,127 Descending FlightAware UK
Fri 05:00:51 AM 49.3741 -0.7200 91° East 428 493 31,500 -1,377 Descending FlightAware UK
Fri 05:01:33 AM 49.3718 -0.5927 92° East 408 470 30,700 -1,333 Descending FlightAware UK
Fri 05:02:03 AM 49.3700 -0.5072 92° East 402 463 29,900 -1,600 Descending FlightAware UK
Fri 05:02:33 AM 49.3681 -0.4230 92° East 394 453 29,100 -1,500 Descending FlightAware UK
Fri 05:02:51 AM 49.3673 -0.3730 92° East 390 449 28,700 -1,625 Descending FlightAware UK
Fri 05:03:21 AM 49.3654 -0.2901 92° East 386 444 27,800 -1,750 Descending FlightAware UK
Fri 05:03:39 AM 49.3636 -0.2416 93° East 380 437 27,300 -1,875 Descending FlightAware UK
Fri 05:04:09 AM 49.3565 -0.1619 98° East 376 433 26,300 -2,091 Descending FlightAware UK
Fri 05:04:45 AM 49.3498 -0.0676 96° East 368 423 25,000 -2,100 Descending FlightAware UK
Fri 05:05:09 AM 49.3613 -0.0104 73° East 364 419 24,200 -1,857 Descending FlightAware UK
Fri 05:05:27 AM 49.3781 0.0244 53° Northeast 362 417 23,700 -1,571 Descending FlightAware UK
Fri 05:05:51 AM 49.4001 0.0704 54° Northeast 356 410 23,100 -1,636 Descending FlightAware UK
Fri 05:06:33 AM 49.4393 0.1487 52° Northeast 352 405 21,900 -1,417 Descending FlightAware UK
Fri 05:07:03 AM 49.4674 0.2042 52° Northeast 350 403 21,400 -625 Descending FlightAware UK
Fri 05:07:21 AM 49.4841 0.2366 52° Northeast 350 403 21,400  Level FlightAware UK
Fri 05:07:45 AM 49.5062 0.2798 52° Northeast 348 400 21,400 -1,000 Level FlightAware UK
Fri 05:08:45 AM 49.5487 0.4008 61° Northeast 342 394 20,000 -1,456 Descending FlightAware UK
Fri 05:09:28 AM 49.5780 0.4856 62° Northeast 334 384 18,900 -1,574 Descending FlightAware UK
Fri 05:09:46 AM 49.5905 0.5214 62° Northeast 334 384 18,400 -1,583 Descending FlightAware UK
Fri 05:10:40 AM 49.6285 0.6277 61° Northeast 328 377 17,000 -1,462 Descending FlightAware UK
Fri 05:11:04 AM 49.6452 0.6736 61° Northeast 324 373 16,500 -1,125 Descending FlightAware UK
Fri 05:11:28 AM 49.6621 0.7198 61° Northeast 324 373 16,100 -1,125 Descending FlightAware UK
Fri 05:11:52 AM 49.6791 0.7654 60° Northeast 322 371 15,600 -1,143 Descending FlightAware UK
Fri 05:12:10 AM 49.6921 0.7999 60° Northeast 320 368 15,300 -1,143 Descending FlightAware UK
Fri 05:12:34 AM 49.7092 0.8451 60° Northeast 318 366 14,800 -1,143 Descending FlightAware UK
Fri 05:12:52 AM 49.7220 0.8786 60° Northeast 316 364 14,500 -1,143 Descending FlightAware UK
Fri 05:13:16 AM 49.7304 0.9286 75° East 314 361 14,000 -1,286 Descending FlightAware UK
Fri 05:13:34 AM 49.7243 0.9675 103° East 312 359 13,600 -833 Descending FlightAware UK
Fri 05:13:52 AM 49.7075 0.9986 130° Southeast 310 357 13,500 -667 Descending FlightAware UK
Fri 05:14:10 AM 49.6883 1.0258 137° Southeast 308 354 13,200 -1,000 Descending FlightAware UK
Fri 05:14:28 AM 49.6688 1.0541 137° Southeast 308 354 12,900 -857 Descending FlightAware UK
Fri 05:14:52 AM 49.6427 1.0902 138° Southeast 308 354 12,600 -750 Descending FlightAware UK
Fri 05:15:16 AM 49.6167 1.1263 138° Southeast 306 352 12,300 -714 Descending FlightAware UK
Fri 05:15:34 AM 49.5974 1.1534 138° Southeast 306 352 12,100 -875 Descending FlightAware UK
Fri 05:16:04 AM 49.5653 1.1989 137° Southeast 302 348 11,600 -909 Descending FlightAware UK
Fri 05:16:40 AM 49.5275 1.2523 137° Southeast 302 348 11,100 -778 Descending FlightAware UK
Fri 05:16:58 AM 49.5088 1.2790 137° Southeast 302 348 10,900 -833 Descending FlightAware UK
Fri 05:17:16 AM 49.4901 1.3052 138° Southeast 298 343 10,600 -667 Descending FlightAware UK
Fri 05:17:34 AM 49.4718 1.3311 138° Southeast 292 336 10,500 -333 Descending FlightAware UK
Fri 05:17:52 AM 49.4537 1.3562 138° Southeast 282 325 10,400  Descending FlightAware UK
Fri 05:18:16 AM 49.4311 1.3877 138° Southeast 274 315 10,500 2,526 Climbing FlightAware UK
Fri 05:18:30 AM 49.4184 1.4054 138° Southeast 277 319 12,000  Climbing FlightAware ADS-B
Fri 05:18:46 AM 49.4029 1.4277 138° Southeast 274 315 10,500  Descending FlightAware UK
Fri 05:19:02 AM 49.3886 1.4471 138° Southeast 278 320 12,000 1,667 Climbing FlightAware ADS-B
Fri 05:19:40 AM 49.3520 1.4981 138° Southeast 277 319 12,000 -1,452 Level FlightAware ADS-B
Fri 05:20:04 AM 49.3292 1.5306 138° Southeast 274 315 10,500  Descending FlightAware UK
Fri 05:20:11 AM 49.3234 1.5379 138° Southeast 275 316 12,000  Climbing FlightAware ADS-B
Fri 05:20:28 AM 49.3065 1.5621 138° Southeast 272 313 10,500  Descending FlightAware UK
Fri 05:20:39 AM 49.3019 1.5802 138° Southeast 272 313 12,000 5,294 Climbing FlightAware ADS-B
Fri 05:20:45 AM 49.2998 1.5907 107° East 273 314 12,000  Level FlightAware ADS-B
Fri 05:20:50 AM 49.2986 1.6015 100° East 273 314 12,000 -2,903 Level FlightAware ADS-B
Fri 05:21:16 AM 49.2959 1.6525 100° East 270 311 10,500  Descending FlightAware UK
Fri 05:21:23 AM 49.2955 1.6632 100° East 267 307 12,000  Climbing FlightAware ADS-B
Fri 05:21:46 AM 49.2937 1.7083 100° East 262 302 10,500  Descending FlightAware UK
Fri 05:21:54 AM 49.2933 1.7203 100° East 259 298 12,000 2,308 Climbing FlightAware ADS-B
Fri 05:22:25 AM 49.2910 1.7768 94° East 261 300 12,000  Level FlightAware ADS-B
Fri 05:22:57 AM 49.2884 1.8353 94° East 258 297 12,000 -1,765 Level FlightAware ADS-B
Fri 05:23:16 AM 49.2867 1.8724 94° East 260 299 10,500  Descending FlightAware UK
Fri 05:23:32 AM 49.2852 1.9001 94° East 257 296 12,000 1,277 Climbing FlightAware ADS-B
Fri 05:24:03 AM 49.2827 1.9545 94° East 256 295 11,500 -870 Descending FlightAware ADS-B
Fri 05:24:41 AM 49.2794 2.0241 94° East 257 296 11,000 -435 Descending FlightAware ADS-B
Fri 05:25:12 AM 49.2768 2.0789 94° East 256 295 11,000 -1,778 Level FlightAware ADS-B
Fri 05:25:35 AM 49.2912 2.1522 94° East 258 297 9,400  Descending FlightAware UK
Fri 05:25:42 AM 49.2742 2.1337 94° East 255 293 11,000  Climbing FlightAware ADS-B
Fri 05:26:05 AM 49.2723 2.1768 94° East 258 297 9,400  Descending FlightAware UK
Fri 05:26:13 AM 49.2715 2.1887 94° East 254 292 11,000 2,462 Climbing FlightAware ADS-B
Fri 05:26:44 AM 49.2688 2.2445 94° East 254 292 11,000  Level FlightAware ADS-B
Fri 05:27:10 AM 49.2666 2.2917 94° East 254 292 11,000  Level FlightAware ADS-B
Fri 05:27:41 AM 49.2639 2.3454 94° East 253 291 11,000  Level FlightAware ADS-B
Fri 05:28:03 AM 49.2618 2.3859 95° East 251 289 11,000 -143 Level FlightAware ADS-B
Fri 05:28:23 AM 49.2601 2.4198 94° East 249 287 10,900 -1,000 Descending FlightAware ADS-B
Fri 05:28:51 AM 49.2575 2.4702 95° East 252 290 10,200 -1,304 Descending FlightAware ADS-B
Fri 05:29:09 AM 49.2559 2.5010 95° East 252 290 9,900 -960 Descending FlightAware ADS-B
Fri 05:29:16 AM 49.2549 2.5144 97° East 251 289 9,800 -1,000 Descending FlightAware ADS-B
Fri 05:29:27 AM 49.2530 2.5340 98° East 251 289 9,600 -1,111 Descending FlightAware ADS-B
Fri 05:29:43 AM 49.2497 2.5619 100° East 251 289 9,300 -1,125 Descending FlightAware ADS-B
Fri 05:29:59 AM 49.2465 2.5886 100° East 251 289 9,000 -581 Descending FlightAware ADS-B
Fri 05:30:14 AM 49.2433 2.6158 100° East 254 292 9,000  Level FlightAware ADS-B
Fri 05:30:30 AM 49.2401 2.6429 100° East 253 291 9,000  Level FlightAware ADS-B
Fri 05:30:45 AM 49.2370 2.6698 100° East 251 289 9,000  Level FlightAware ADS-B
Fri 05:31:00 AM 49.2338 2.6967 100° East 251 289 9,000  Level FlightAware ADS-B
Fri 05:31:16 AM 49.2307 2.7232 100° East 252 290 9,000 -375 Level FlightAware ADS-B
Fri 05:31:32 AM 49.2273 2.7520 100° East 251 289 8,800 -909 Descending FlightAware ADS-B
Fri 05:31:49 AM 49.2239 2.7808 100° East 251 289 8,500 -1,157 Descending FlightAware ADS-B
Fri 05:32:55 AM 49.2001 2.8880 109° East 252 290 7,200 -1,135 Descending FlightAware ADS-B
Fri 05:33:03 AM 49.1922 2.8955 148° Southeast 253 291 7,100 -522 Descending FlightAware ADS-B
Fri 05:33:18 AM 49.1769 2.9082 152° Southeast 250 288 7,000 -600 Descending FlightAware ADS-B
Fri 05:33:33 AM 49.1612 2.9209 152° Southeast 248 285 6,800 -828 Descending FlightAware ADS-B
Fri 05:33:47 AM 49.1474 2.9321 152° Southeast 248 285 6,600 -1,034 Descending FlightAware ADS-B
Fri 05:34:02 AM 49.1317 2.9450 152° Southeast 247 284 6,300 -1,000 Descending FlightAware ADS-B
Fri 05:34:17 AM 49.1165 2.9576 152° Southeast 247 284 6,100 -900 Descending FlightAware ADS-B
Fri 05:34:22 AM 49.1117 2.9614 152° Southeast 247 284 6,000 -1,636 Descending FlightAware ADS-B
Fri 05:34:28 AM 49.1050 2.9657 157° South 248 285 5,800 -1,800 Descending FlightAware ADS-B
Fri 05:34:32 AM 49.1006 2.9674 165° South 250 288 5,700 -1,200 Descending FlightAware ADS-B
Fri 05:34:38 AM 49.0945 2.9686 173° South 250 288 5,600 -1,059 Descending FlightAware ADS-B
Fri 05:34:49 AM 49.0813 2.9691 179° South 250 288 5,400 -1,000 Descending FlightAware ADS-B
Fri 05:35:02 AM 49.0662 2.9685 181° South 248 285 5,200 -508 Descending FlightAware ADS-B
Fri 05:35:48 AM 49.0401 2.9181 232° Southwest 248 285 4,900 -453 Descending FlightAware ADS-B
Fri 05:35:55 AM 49.0418 2.9076 284° West 208 239 4,800 -1,091 Descending FlightAware ADS-B
Fri 05:35:59 AM 49.0425 2.9015 280° West 208 239 4,700 -1,250 Descending FlightAware ADS-B
Fri 05:36:19 AM 49.0431 2.8728 272° West 210 242 4,300 -1,161 Descending FlightAware ADS-B
Fri 05:36:30 AM 49.0423 2.8568 266° West 213 245 4,100 -1,111 Descending FlightAware ADS-B
Fri 05:36:46 AM 49.0406 2.8320 264° West 213 245 3,800 -968 Descending FlightAware ADS-B
Fri 05:37:01 AM 49.0396 2.8095 266° West 212 244 3,600 -1,167 Descending FlightAware ADS-B
Fri 05:37:22 AM 49.0381 2.7786 266° West 212 244 3,100 -1,371 Descending FlightAware ADS-B
Fri 05:37:36 AM 49.0367 2.7581 264° West 211 243 2,800 -1,154 Descending FlightAware ADS-B
Fri 05:37:48 AM 49.0360 2.7403 267° West 206 237 2,600 -1,111 Descending FlightAware ADS-B
Fri 05:38:03 AM 49.0350 2.7183 266° West 202 232 2,300 -1,154 Descending FlightAware ADS-B
Fri 05:38:14 AM 49.0341 2.7033 265° West 197 227 2,100 -857 Descending FlightAware ADS-B
Fri 05:38:24 AM 49.0333 2.6897 265° West 191 220 2,000 -1,091 Descending FlightAware ADS-B
Fri 05:38:36 AM 49.0327 2.6752 266° West 179 206 1,700 -1,043 Descending FlightAware ADS-B
Fri 05:38:47 AM 49.0319 2.6614 265° West 167 192 1,600 -692 Descending FlightAware ADS-B
Fri 05:39:02 AM 49.0311 2.6449 266° West 151 174 1,400 -889 Descending FlightAware ADS-B
Fri 05:39:14 AM 49.0304 2.6325 265° West 139 160 1,200 -900 Descending FlightAware ADS-B
Fri 05:39:22 AM 49.0301 2.6250 267° West 140 161 1,100 -750 Descending FlightAware ADS-B
Fri 05:39:30 AM 49.0296 2.6169 265° West 138 159 1,000 -800 Descending FlightAware ADS-B
Fri 05:39:37 AM 49.0292 2.6098 265° West 137 158 900 -857 Descending FlightAware ADS-B
Fri 05:39:44 AM 49.0289 2.6040 266° West 136 157 800 -750 Descending FlightAware ADS-B
Fri 05:39:53 AM 49.0284 2.5952 265° West 137 158 700 -750 Descending FlightAware ADS-B
Fri 05:40:08 AM 49.0277 2.5806 266° West 133 153 500 -720 Descending FlightAware ADS-B
Fri 05:40:18 AM 49.0272 2.5714 265° West 134 154 400 -643 Descending FlightAware ADS-B
Fri 05:40:36 AM 49.0263 2.5544 265° West 133 153 200 -667 Descending FlightAware ADS-B
Fri 05:45:00 AM 47.6505 -1.6767 62° Northeast  Level Estimated
Fri 05:46:00 AM 47.7042 -1.5228 63° Northeast  Level Estimated
Fri 05:47:00 AM 47.7577 -1.3685 63° Northeast  Level Estimated
Fri 05:54:00 AM 47.5953 -1.7556 62° Northeast  Level Estimated
Fri 05:55:00 AM 47.6502 -1.6016 62° Northeast  Level Estimated
Fri 05:56:00 AM 47.7049 -1.4473 62° Northeast  Level Estimated
Fri 05:57:00 AM 47.7594 -1.2926 62° Northeast  Level Estimated
Fri 05:58:00 AM 47.8137 -1.1376 62° Northeast  Level Estimated
Fri 05:59:00 AM 47.8678 -0.9823 63° Northeast  Level Estimated
Fri 06:00:00 AM 47.9216 -0.8266 63° Northeast  Level Estimated
Fri 06:01:00 AM 47.9753 -0.6707 63° Northeast  Level Estimated
Fri 06:02:00 AM 48.0287 -0.5144 63° Northeast  Level Estimated
Fri 06:03:00 AM 48.0819 -0.3578 63° Northeast  Level Estimated
Fri 06:04:00 AM 48.1349 -0.2008 63° Northeast  Level Estimated
Fri 06:05:00 AM 48.1877 -0.0436 63° Northeast  Level Estimated
Fri 06:06:00 AM 48.2403 0.1140 63° Northeast  Level Estimated
Fri 06:07:00 AM 48.2927 0.2719 63° Northeast  Level Estimated
Fri 06:08:00 AM 48.3448 0.4302 64° Northeast  Level Estimated

Login

Don't have an account? Register now (free) for customized features, flight alerts, and more!